createdAt,value
2019-03-30T00:01:01.905Z,9.50
2019-03-30T00:03:54.385Z,9.50
2019-03-30T00:06:47.834Z,9.60
2019-03-30T00:09:40.552Z,9.50
2019-03-30T00:12:33.005Z,9.50
2019-03-30T00:15:25.563Z,9.50
2019-03-30T00:18:17.860Z,9.50
2019-03-30T00:21:10.304Z,9.50
2019-03-30T00:24:03.496Z,9.50
2019-03-30T00:26:56.383Z,9.40
2019-03-30T00:29:49.648Z,9.40
2019-03-30T00:32:42.492Z,9.30
2019-03-30T00:35:34.997Z,9.30
2019-03-30T00:38:27.472Z,9.10
2019-03-30T00:41:19.572Z,9.00
2019-03-30T00:44:11.736Z,8.90
2019-03-30T00:47:03.907Z,8.80
2019-03-30T00:49:56.080Z,8.70
2019-03-30T00:52:48.369Z,8.60
2019-03-30T00:55:40.828Z,8.60
2019-03-30T00:58:33.193Z,8.50
2019-03-30T01:01:25.345Z,8.40
2019-03-30T01:04:17.774Z,8.40
2019-03-30T01:07:10.236Z,8.30
2019-03-30T01:10:02.711Z,8.20
2019-03-30T01:12:55.803Z,8.20
2019-03-30T01:15:48.100Z,8.20
2019-03-30T01:18:40.774Z,8.10
2019-03-30T01:21:34.155Z,8.10
2019-03-30T01:24:26.523Z,8.00
2019-03-30T01:27:19.296Z,8.10
2019-03-30T01:30:22.563Z,8.10
2019-03-30T01:33:06.229Z,8.10
2019-03-30T01:35:58.755Z,8.00
2019-03-30T01:38:51.372Z,7.90
2019-03-30T01:41:44.468Z,7.80
2019-03-30T01:44:36.873Z,7.80
2019-03-30T01:47:29.712Z,7.80
2019-03-30T01:50:22.723Z,7.80
2019-03-30T01:53:14.990Z,7.70
2019-03-30T01:56:07.492Z,7.70
2019-03-30T01:59:00.292Z,7.60
2019-03-30T02:01:53.452Z,7.50
2019-03-30T02:04:45.968Z,7.50
2019-03-30T02:07:38.990Z,7.40
2019-03-30T02:10:50.398Z,7.40
2019-03-30T02:13:42.869Z,7.40
2019-03-30T02:16:35.241Z,7.40
2019-03-30T02:19:27.646Z,7.40
2019-03-30T02:22:19.879Z,7.40
2019-03-30T02:25:13.424Z,7.40
2019-03-30T02:28:07.149Z,7.40
2019-03-30T02:30:59.999Z,7.30
2019-03-30T02:33:52.443Z,7.30
2019-03-30T02:36:44.560Z,7.30
2019-03-30T02:39:36.728Z,7.30
2019-03-30T02:42:28.999Z,7.40
2019-03-30T02:45:21.229Z,7.40
2019-03-30T02:48:13.635Z,7.50
2019-03-30T02:51:06.134Z,7.60
2019-03-30T02:53:58.581Z,7.70
2019-03-30T02:56:52.527Z,7.70
2019-03-30T02:59:44.745Z,7.70
2019-03-30T03:02:37.143Z,7.70
2019-03-30T03:05:29.591Z,7.80
2019-03-30T03:08:21.661Z,7.80
2019-03-30T03:11:13.922Z,7.80
2019-03-30T03:14:06.372Z,7.80
2019-03-30T03:16:58.767Z,7.80
2019-03-30T03:19:50.970Z,7.80
2019-03-30T03:22:43.068Z,7.80
2019-03-30T03:25:35.391Z,7.80
2019-03-30T03:28:27.538Z,7.80
2019-03-30T03:31:19.779Z,7.70
2019-03-30T03:34:12.284Z,7.70
2019-03-30T03:37:04.808Z,7.70
2019-03-30T03:39:56.995Z,7.60
2019-03-30T03:42:49.507Z,7.50
2019-03-30T03:45:41.648Z,7.40
2019-03-30T03:48:34.481Z,7.30
2019-03-30T03:51:26.903Z,7.30
2019-03-30T03:54:20.008Z,7.10
2019-03-30T03:57:14.558Z,7.00
2019-03-30T04:00:09.451Z,7.00
2019-03-30T04:03:04.961Z,6.90
2019-03-30T04:06:00.697Z,6.80
2019-03-30T04:08:55.811Z,6.70
2019-03-30T04:11:49.451Z,6.70
2019-03-30T04:14:49.727Z,6.60
2019-03-30T04:17:42.888Z,6.60
2019-03-30T04:20:35.319Z,6.50
2019-03-30T04:23:27.650Z,6.50
2019-03-30T04:26:19.844Z,6.50
2019-03-30T04:29:12.510Z,6.50
2019-03-30T04:32:06.121Z,6.40
2019-03-30T04:34:58.416Z,6.40
2019-03-30T04:37:50.822Z,6.30
2019-03-30T04:40:43.300Z,6.30
2019-03-30T04:43:35.640Z,6.30
2019-03-30T04:46:28.044Z,6.20
2019-03-30T04:49:20.385Z,6.20
2019-03-30T04:52:12.982Z,6.20
2019-03-30T04:55:05.277Z,6.10
2019-03-30T04:57:58.101Z,6.10
2019-03-30T05:00:50.523Z,6.00
2019-03-30T05:03:42.993Z,6.00
2019-03-30T05:06:35.597Z,5.90
2019-03-30T05:09:27.819Z,5.90
2019-03-30T05:12:19.957Z,5.90
2019-03-30T05:15:12.397Z,5.90
2019-03-30T05:18:04.777Z,5.90
2019-03-30T05:20:56.961Z,5.90
2019-03-30T05:23:49.121Z,5.90
2019-03-30T05:26:41.561Z,5.90
2019-03-30T05:29:34.682Z,5.90
2019-03-30T05:32:27.075Z,5.80
2019-03-30T05:35:19.215Z,5.70
2019-03-30T05:38:11.543Z,5.70
2019-03-30T05:41:04.086Z,5.70
2019-03-30T05:43:56.987Z,5.70
2019-03-30T05:46:49.190Z,5.70
2019-03-30T05:49:41.430Z,5.90
2019-03-30T05:52:35.620Z,5.90
2019-03-30T05:55:27.867Z,5.90
2019-03-30T05:58:20.336Z,6.00
2019-03-30T06:01:12.966Z,6.10
2019-03-30T06:04:05.477Z,6.20
2019-03-30T06:06:58.481Z,6.40
2019-03-30T06:09:51.343Z,6.60
2019-03-30T06:12:43.589Z,6.80
2019-03-30T06:15:36.489Z,6.90
2019-03-30T06:18:29.533Z,7.20
2019-03-30T06:21:22.457Z,7.40
2019-03-30T06:24:14.923Z,7.70
2019-03-30T06:27:07.062Z,8.00
2019-03-30T06:30:24.035Z,8.30
2019-03-30T06:33:16.487Z,8.60
2019-03-30T06:36:08.704Z,8.90
2019-03-30T06:39:01.133Z,9.20
2019-03-30T06:41:53.425Z,9.60
2019-03-30T06:44:46.524Z,9.90
2019-03-30T06:47:38.671Z,10.30
2019-03-30T06:50:31.568Z,10.60
2019-03-30T06:53:23.960Z,10.80
2019-03-30T06:56:16.346Z,11.10
2019-03-30T06:59:08.513Z,11.60
2019-03-30T07:02:00.779Z,12.00
2019-03-30T07:04:53.456Z,12.50
2019-03-30T07:07:48.236Z,12.90
2019-03-30T07:10:42.625Z,13.20
2019-03-30T07:13:38.014Z,13.50
2019-03-30T07:16:33.245Z,14.00
2019-03-30T07:19:28.621Z,14.30
2019-03-30T07:22:21.548Z,15.00
2019-03-30T07:25:13.910Z,15.50
2019-03-30T07:28:06.488Z,15.90
2019-03-30T07:30:58.718Z,16.10
2019-03-30T07:33:50.896Z,16.20
2019-03-30T07:36:43.022Z,16.10
2019-03-30T07:39:36.014Z,16.20
2019-03-30T07:42:28.997Z,16.20
2019-03-30T07:45:22.374Z,16.40
2019-03-30T07:48:14.894Z,17.10
2019-03-30T07:51:07.450Z,18.00
2019-03-30T07:53:59.754Z,18.50
2019-03-30T07:57:04.296Z,18.80
2019-03-30T07:59:46.311Z,19.40
2019-03-30T08:02:38.494Z,19.90
2019-03-30T08:05:30.908Z,20.10
2019-03-30T08:08:23.320Z,19.90
2019-03-30T08:11:16.355Z,19.60
2019-03-30T08:14:08.889Z,19.90
2019-03-30T08:17:01.345Z,19.70
2019-03-30T08:19:53.720Z,19.50
2019-03-30T08:22:46.582Z,19.60
2019-03-30T08:25:38.743Z,19.90
2019-03-30T08:28:31.650Z,20.20
2019-03-30T08:31:24.622Z,21.00
2019-03-30T08:34:16.997Z,21.50
2019-03-30T08:37:09.385Z,21.80
2019-03-30T08:40:01.754Z,22.20
2019-03-30T08:42:54.206Z,22.50
2019-03-30T08:45:49.054Z,22.50
2019-03-30T08:48:43.355Z,22.50
2019-03-30T08:51:35.520Z,22.20
2019-03-30T08:54:28.393Z,22.40
2019-03-30T08:57:20.971Z,22.90
2019-03-30T09:00:15.375Z,23.10
2019-03-30T09:03:07.341Z,23.40
2019-03-30T09:06:00.546Z,23.90
2019-03-30T09:08:52.935Z,24.00
2019-03-30T09:11:46.341Z,24.40
2019-03-30T09:14:38.856Z,24.50
2019-03-30T09:17:31.030Z,24.70
2019-03-30T09:20:23.975Z,24.80
2019-03-30T09:23:16.277Z,24.80
2019-03-30T09:26:09.643Z,24.80
2019-03-30T09:29:02.601Z,24.80
2019-03-30T09:31:55.076Z,25.20
2019-03-30T09:34:47.317Z,25.30
2019-03-30T09:37:39.752Z,25.70
2019-03-30T09:40:32.343Z,25.90
2019-03-30T09:43:24.867Z,25.90
2019-03-30T09:46:17.275Z,26.00
2019-03-30T09:49:09.473Z,26.10
2019-03-30T09:52:01.625Z,26.20
2019-03-30T09:54:54.089Z,26.30
2019-03-30T09:57:46.519Z,26.30
2019-03-30T10:00:38.638Z,26.40
2019-03-30T10:03:31.105Z,26.30
2019-03-30T10:06:33.849Z,26.30
2019-03-30T10:09:17.601Z,26.30
2019-03-30T10:12:10.173Z,26.60
2019-03-30T10:15:02.269Z,26.80
2019-03-30T10:17:54.717Z,27.00
2019-03-30T10:20:46.871Z,27.00
2019-03-30T10:23:38.933Z,26.70
2019-03-30T10:26:31.144Z,26.70
2019-03-30T10:29:23.943Z,26.60
2019-03-30T10:32:16.091Z,26.60
2019-03-30T10:35:09.833Z,26.70
2019-03-30T10:38:03.149Z,26.80
2019-03-30T10:40:55.675Z,27.00
2019-03-30T10:43:47.941Z,26.90
2019-03-30T10:46:40.384Z,26.80
2019-03-30T10:49:32.585Z,26.70
2019-03-30T10:52:26.457Z,26.70
2019-03-30T10:55:18.856Z,26.70
2019-03-30T10:58:11.294Z,27.00
2019-03-30T11:01:03.545Z,27.30
2019-03-30T11:03:55.721Z,27.40
2019-03-30T11:06:48.233Z,27.50
2019-03-30T11:09:41.273Z,27.60
2019-03-30T11:12:34.178Z,27.50
2019-03-30T11:15:26.257Z,27.30
2019-03-30T11:18:18.399Z,26.90
2019-03-30T11:21:10.809Z,26.80
2019-03-30T11:24:06.551Z,26.80
2019-03-30T11:26:56.730Z,27.10
2019-03-30T11:29:49.757Z,27.50
2019-03-30T11:32:42.376Z,27.50
2019-03-30T11:35:35.057Z,27.40
2019-03-30T11:38:27.417Z,27.30
2019-03-30T11:41:19.985Z,27.30
2019-03-30T11:44:12.432Z,27.40
2019-03-30T11:47:05.065Z,26.70
2019-03-30T11:49:57.764Z,26.30
2019-03-30T11:52:50.336Z,26.60
2019-03-30T11:55:42.741Z,26.00
2019-03-30T11:58:34.998Z,25.40
2019-03-30T12:01:27.305Z,26.10
2019-03-30T12:04:19.969Z,26.90
2019-03-30T12:07:12.287Z,27.50
2019-03-30T12:10:05.039Z,28.00
2019-03-30T12:12:57.250Z,28.40
2019-03-30T12:15:49.436Z,28.70
2019-03-30T12:18:41.594Z,28.60
2019-03-30T12:21:33.982Z,28.90
2019-03-30T12:24:26.120Z,28.80
2019-03-30T12:27:18.585Z,27.60
2019-03-30T12:30:11.652Z,27.00
2019-03-30T12:33:04.201Z,27.20
2019-03-30T12:35:57.039Z,27.80
2019-03-30T12:38:50.214Z,27.60
2019-03-30T12:41:42.546Z,26.90
2019-03-30T12:44:35.265Z,27.10
2019-03-30T12:47:27.577Z,27.60
2019-03-30T12:50:19.962Z,28.10
2019-03-30T12:53:12.490Z,28.80
2019-03-30T12:56:04.890Z,29.10
2019-03-30T12:58:57.282Z,29.90
2019-03-30T13:01:49.778Z,29.90
2019-03-30T13:04:42.046Z,30.10
2019-03-30T13:07:34.650Z,30.10
2019-03-30T13:10:27.569Z,29.70
2019-03-30T13:13:20.047Z,29.60
2019-03-30T13:16:12.454Z,29.90
2019-03-30T13:19:05.347Z,29.70
2019-03-30T13:21:57.856Z,29.50
2019-03-30T13:24:50.964Z,29.80
2019-03-30T13:27:43.425Z,30.10
2019-03-30T13:30:35.840Z,30.20
2019-03-30T13:33:28.001Z,30.20
2019-03-30T13:36:22.491Z,30.50
2019-03-30T13:39:14.607Z,30.70
2019-03-30T13:42:06.957Z,30.50
2019-03-30T13:45:03.403Z,30.10
2019-03-30T13:47:57.310Z,29.80
2019-03-30T13:50:49.747Z,29.40
2019-03-30T13:53:42.231Z,29.30
2019-03-30T13:56:34.591Z,29.00
2019-03-30T13:59:27.043Z,29.00
2019-03-30T14:02:19.454Z,28.90
2019-03-30T14:05:11.699Z,28.60
2019-03-30T14:08:04.081Z,28.20
2019-03-30T14:10:56.986Z,27.70
2019-03-30T14:13:49.563Z,27.30
2019-03-30T14:16:42.518Z,26.70
2019-03-30T14:19:34.649Z,26.50
2019-03-30T14:22:27.704Z,26.50
2019-03-30T14:25:19.946Z,26.50
2019-03-30T14:28:13.704Z,26.70
2019-03-30T14:31:06.373Z,26.80
2019-03-30T14:33:58.937Z,26.80
2019-03-30T14:36:51.477Z,25.60
2019-03-30T14:39:43.967Z,25.00
2019-03-30T14:42:36.873Z,24.90
2019-03-30T14:45:29.501Z,25.10
2019-03-30T14:48:21.807Z,25.20
2019-03-30T14:51:14.859Z,24.90
2019-03-30T14:54:07.684Z,24.80
2019-03-30T14:57:00.834Z,24.30
2019-03-30T14:59:53.350Z,24.10
2019-03-30T15:02:45.898Z,24.30
2019-03-30T15:05:38.045Z,24.70
2019-03-30T15:08:30.404Z,25.00
2019-03-30T15:11:22.768Z,25.30
2019-03-30T15:14:15.263Z,25.50
2019-03-30T15:17:08.216Z,25.70
2019-03-30T15:20:01.124Z,25.50
2019-03-30T15:22:53.403Z,25.30
2019-03-30T15:25:45.699Z,25.60
2019-03-30T15:28:38.331Z,25.80
2019-03-30T15:31:31.155Z,26.00
2019-03-30T15:34:23.514Z,25.80
2019-03-30T15:37:16.901Z,25.80
2019-03-30T15:40:11.008Z,25.70
2019-03-30T15:43:04.112Z,25.60
2019-03-30T15:45:56.696Z,25.30
2019-03-30T15:48:48.969Z,24.80
2019-03-30T15:51:41.499Z,24.20
2019-03-30T15:54:37.091Z,23.40
2019-03-30T15:57:28.257Z,22.80
2019-03-30T16:00:21.253Z,22.20
2019-03-30T16:03:13.693Z,21.80
2019-03-30T16:06:05.926Z,21.50
2019-03-30T16:08:58.185Z,21.30
2019-03-30T16:11:50.636Z,20.90
2019-03-30T16:14:43.172Z,20.60
2019-03-30T16:17:35.729Z,20.60
2019-03-30T16:20:28.775Z,20.40
2019-03-30T16:23:21.095Z,20.30
2019-03-30T16:26:13.641Z,20.30
2019-03-30T16:29:06.119Z,20.30
2019-03-30T16:31:58.347Z,20.20
2019-03-30T16:34:50.451Z,20.10
2019-03-30T16:37:42.676Z,19.90
2019-03-30T16:40:35.291Z,19.70
2019-03-30T16:43:27.528Z,19.60
2019-03-30T16:46:20.083Z,19.40
2019-03-30T16:49:13.322Z,19.30
2019-03-30T16:52:06.603Z,19.20
2019-03-30T16:54:59.283Z,19.10
2019-03-30T16:57:52.836Z,19.00
2019-03-30T17:00:56.257Z,18.80
2019-03-30T17:03:39.027Z,18.70
2019-03-30T17:06:31.630Z,18.70
2019-03-30T17:09:24.060Z,18.60
2019-03-30T17:12:16.518Z,18.30
2019-03-30T17:15:10.286Z,18.10
2019-03-30T17:18:02.857Z,17.90
2019-03-30T17:20:55.054Z,17.60
2019-03-30T17:23:47.358Z,17.40
2019-03-30T17:26:39.862Z,17.10
2019-03-30T17:29:32.077Z,16.90
2019-03-30T17:32:25.073Z,16.60
2019-03-30T17:35:17.242Z,16.50
2019-03-30T17:38:09.762Z,16.30
2019-03-30T17:41:02.486Z,16.10
2019-03-30T17:44:24.945Z,15.90
2019-03-30T17:47:17.444Z,15.80
2019-03-30T17:50:11.496Z,15.60
2019-03-30T17:53:05.120Z,15.40
2019-03-30T17:55:57.960Z,15.30
2019-03-30T17:58:52.230Z,15.20
2019-03-30T18:01:44.513Z,15.10
2019-03-30T18:04:38.971Z,15.10
2019-03-30T18:07:31.017Z,15.00
2019-03-30T18:10:24.167Z,15.00
2019-03-30T18:13:16.435Z,15.00
2019-03-30T18:16:09.169Z,14.90
2019-03-30T18:19:01.385Z,14.90
2019-03-30T18:21:54.365Z,14.90
2019-03-30T18:24:46.769Z,14.80
2019-03-30T18:27:39.247Z,14.70
2019-03-30T18:30:42.378Z,14.60
2019-03-30T18:33:35.121Z,14.60
2019-03-30T18:36:30.254Z,14.40
2019-03-30T18:39:22.951Z,14.30
2019-03-30T18:42:15.161Z,14.30
2019-03-30T18:45:09.371Z,14.20
2019-03-30T18:48:14.721Z,14.10
2019-03-30T18:51:07.176Z,14.10
2019-03-30T18:53:59.739Z,14.10
2019-03-30T18:56:52.128Z,14.10
2019-03-30T18:59:44.745Z,14.20
2019-03-30T19:02:37.274Z,14.20
2019-03-30T19:05:29.428Z,14.20
2019-03-30T19:08:22.825Z,14.20
2019-03-30T19:11:15.379Z,14.20
2019-03-30T19:14:08.251Z,14.10
2019-03-30T19:17:00.592Z,14.10
2019-03-30T19:19:53.193Z,14.00
2019-03-30T19:22:45.778Z,14.00
2019-03-30T19:25:38.319Z,14.00
2019-03-30T19:28:30.829Z,13.90
2019-03-30T19:31:23.111Z,13.80
2019-03-30T19:34:15.562Z,13.70
2019-03-30T19:37:08.587Z,13.70
2019-03-30T19:40:00.747Z,13.70
2019-03-30T19:42:52.981Z,13.60
2019-03-30T19:45:45.405Z,13.60
2019-03-30T19:48:37.880Z,13.60
2019-03-30T19:51:30.145Z,13.50
2019-03-30T19:54:22.457Z,13.40
2019-03-30T19:57:14.969Z,13.40
2019-03-30T20:00:08.953Z,13.40
2019-03-30T20:03:01.587Z,13.40
2019-03-30T20:05:54.028Z,13.40
2019-03-30T20:08:46.466Z,13.30
2019-03-30T20:11:38.691Z,13.30
2019-03-30T20:14:30.980Z,13.20
2019-03-30T20:17:23.636Z,13.20
2019-03-30T20:20:15.834Z,13.10
2019-03-30T20:23:08.585Z,13.10
2019-03-30T20:26:02.467Z,13.20
2019-03-30T20:28:55.670Z,13.20
2019-03-30T20:31:47.822Z,13.10
2019-03-30T20:34:40.278Z,13.00
2019-03-30T20:37:32.480Z,13.00
2019-03-30T20:40:24.689Z,12.90
2019-03-30T20:43:16.898Z,12.80
2019-03-30T20:46:09.377Z,12.80
2019-03-30T20:49:01.851Z,12.70
2019-03-30T20:51:54.371Z,12.60
2019-03-30T20:54:46.863Z,12.50
2019-03-30T20:57:39.863Z,12.30
2019-03-30T21:00:32.114Z,12.10
2019-03-30T21:03:24.599Z,12.00
2019-03-30T21:06:17.048Z,11.90
2019-03-30T21:09:10.161Z,11.80
2019-03-30T21:12:03.398Z,11.80
2019-03-30T21:14:55.784Z,11.70
2019-03-30T21:17:47.901Z,11.70
2019-03-30T21:20:40.435Z,11.60
2019-03-30T21:23:33.493Z,11.60
2019-03-30T21:26:28.624Z,11.50
2019-03-30T21:29:19.970Z,11.50
2019-03-30T21:32:12.092Z,11.50
2019-03-30T21:35:07.021Z,11.50
2019-03-30T21:37:59.512Z,11.50
2019-03-30T21:40:51.722Z,11.50
2019-03-30T21:43:44.218Z,11.40
2019-03-30T21:46:36.408Z,11.30
2019-03-30T21:49:31.000Z,11.20
2019-03-30T21:52:23.020Z,11.10
2019-03-30T21:55:15.627Z,11.00
2019-03-30T21:58:08.057Z,11.00
2019-03-30T22:01:01.635Z,11.00
2019-03-30T22:03:54.057Z,11.10
2019-03-30T22:06:46.518Z,11.00
2019-03-30T22:09:40.094Z,11.00
2019-03-30T22:12:33.342Z,10.90
2019-03-30T22:15:29.433Z,10.80
2019-03-30T22:18:21.652Z,10.70
2019-03-30T22:21:14.016Z,10.70
2019-03-30T22:24:06.533Z,10.60
2019-03-30T22:27:00.158Z,10.70
2019-03-30T22:29:53.031Z,10.80
2019-03-30T22:32:45.267Z,10.80
2019-03-30T22:35:37.475Z,10.80
2019-03-30T22:38:30.295Z,10.80
2019-03-30T22:41:22.698Z,10.60
2019-03-30T22:44:15.120Z,10.50
2019-03-30T22:47:07.685Z,10.50
2019-03-30T22:50:00.516Z,10.40
2019-03-30T22:52:52.982Z,10.30
2019-03-30T22:55:45.540Z,10.20
2019-03-30T22:58:38.085Z,10.20
2019-03-30T23:01:30.479Z,10.10
2019-03-30T23:04:22.712Z,10.10
2019-03-30T23:07:15.137Z,10.00
2019-03-30T23:10:08.017Z,10.00
2019-03-30T23:13:00.481Z,9.90
2019-03-30T23:15:52.872Z,9.90
2019-03-30T23:18:45.593Z,9.90
2019-03-30T23:21:38.428Z,9.80
2019-03-30T23:24:30.949Z,9.80
2019-03-30T23:27:23.300Z,9.80
2019-03-30T23:30:15.701Z,9.80
2019-03-30T23:33:07.885Z,9.70
2019-03-30T23:36:00.958Z,9.70
2019-03-30T23:38:53.387Z,9.60
2019-03-30T23:41:45.730Z,9.50
2019-03-30T23:44:37.971Z,9.50
2019-03-30T23:47:31.552Z,9.50
2019-03-30T23:50:23.660Z,9.50
2019-03-30T23:53:15.951Z,9.50
2019-03-30T23:56:27.196Z,9.50
2019-03-30T23:59:19.439Z,9.50
